sensor_id;sensor_type;location;lat;lon;timestamp;pressure;altitude;pressure_sealevel;temperature;humidity
13594;BME280;6449;47.666;9.160;2022-10-17T00:04:07;97620.78;;;12.77;100.00
13594;BME280;6449;47.666;9.160;2022-10-17T00:19:22;97627.41;;;12.58;100.00
13594;BME280;6449;47.666;9.160;2022-10-17T00:24:16;97629.69;;;12.63;100.00
13594;BME280;6449;47.666;9.160;2022-10-17T00:29:09;97632.00;;;12.68;100.00
13594;BME280;6449;47.666;9.160;2022-10-17T00:34:02;97645.50;;;12.50;100.00
13594;BME280;6449;47.666;9.160;2022-10-17T00:38:58;97643.00;;;12.49;100.00
13594;BME280;6449;47.666;9.160;2022-10-17T00:43:56;97642.09;;;12.61;100.00
13594;BME280;6449;47.666;9.160;2022-10-17T00:48:52;97644.97;;;12.58;100.00
13594;BME280;6449;47.666;9.160;2022-10-17T00:58:58;97643.97;;;12.35;100.00
13594;BME280;6449;47.666;9.160;2022-10-17T01:03:52;97636.91;;;12.36;100.00
13594;BME280;6449;47.666;9.160;2022-10-17T01:08:46;97633.50;;;12.46;100.00
13594;BME280;6449;47.666;9.160;2022-10-17T01:13:47;97634.59;;;12.44;100.00
13594;BME280;6449;47.666;9.160;2022-10-17T01:19:02;97634.97;;;12.50;100.00
13594;BME280;6449;47.666;9.160;2022-10-17T01:36:11;97625.28;;;12.27;100.00
13594;BME280;6449;47.666;9.160;2022-10-17T01:41:18;97623.75;;;12.36;100.00
13594;BME280;6449;47.666;9.160;2022-10-17T01:46:21;97621.88;;;12.38;100.00
13594;BME280;6449;47.666;9.160;2022-10-17T01:51:22;97623.38;;;12.29;100.00
13594;BME280;6449;47.666;9.160;2022-10-17T02:42:54;97629.72;;;12.50;100.00
13594;BME280;6449;47.666;9.160;2022-10-17T02:58:15;97602.97;;;12.56;100.00
13594;BME280;6449;47.666;9.160;2022-10-17T03:03:23;97602.56;;;12.63;100.00
13594;BME280;6449;47.666;9.160;2022-10-17T03:08:17;97607.72;;;12.51;100.00
13594;BME280;6449;47.666;9.160;2022-10-17T03:13:12;97612.28;;;12.49;100.00
13594;BME280;6449;47.666;9.160;2022-10-17T03:18:05;97616.31;;;12.66;100.00
13594;BME280;6449;47.666;9.160;2022-10-17T03:22:59;97620.41;;;12.70;100.00
13594;BME280;6449;47.666;9.160;2022-10-17T03:27:52;97625.66;;;12.70;100.00
13594;BME280;6449;47.666;9.160;2022-10-17T03:32:47;97632.72;;;12.70;100.00
13594;BME280;6449;47.666;9.160;2022-10-17T03:37:40;97620.31;;;12.83;100.00
13594;BME280;6449;47.666;9.160;2022-10-17T03:42:33;97627.69;;;12.91;100.00
13594;BME280;6449;47.666;9.160;2022-10-17T03:47:27;97625.97;;;12.78;100.00
13594;BME280;6449;47.666;9.160;2022-10-17T03:52:23;97620.56;;;12.80;100.00
13594;BME280;6449;47.666;9.160;2022-10-17T03:57:16;97623.91;;;12.82;100.00
13594;BME280;6449;47.666;9.160;2022-10-17T04:02:10;97619.50;;;12.82;100.00
13594;BME280;6449;47.666;9.160;2022-10-17T04:07:03;97637.66;;;12.74;100.00
13594;BME280;6449;47.666;9.160;2022-10-17T04:11:58;97632.88;;;12.79;100.00
13594;BME280;6449;47.666;9.160;2022-10-17T04:16:52;97641.03;;;12.88;100.00
13594;BME280;6449;47.666;9.160;2022-10-17T04:21:45;97637.75;;;12.97;100.00
13594;BME280;6449;47.666;9.160;2022-10-17T04:26:38;97641.78;;;12.90;100.00
13594;BME280;6449;47.666;9.160;2022-10-17T04:31:33;97645.25;;;12.90;100.00
13594;BME280;6449;47.666;9.160;2022-10-17T04:36:26;97652.25;;;12.78;100.00
13594;BME280;6449;47.666;9.160;2022-10-17T04:41:20;97643.28;;;12.81;100.00
13594;BME280;6449;47.666;9.160;2022-10-17T04:46:14;97654.22;;;12.88;100.00
13594;BME280;6449;47.666;9.160;2022-10-17T04:51:12;97653.63;;;12.84;100.00
13594;BME280;6449;47.666;9.160;2022-10-17T04:56:11;97643.28;;;12.81;100.00
13594;BME280;6449;47.666;9.160;2022-10-17T05:01:06;97661.03;;;12.66;100.00
13594;BME280;6449;47.666;9.160;2022-10-17T05:06:04;97655.31;;;12.72;100.00
13594;BME280;6449;47.666;9.160;2022-10-17T05:11:01;97665.84;;;12.72;100.00
13594;BME280;6449;47.666;9.160;2022-10-17T05:15:58;97658.47;;;12.77;100.00
13594;BME280;6449;47.666;9.160;2022-10-17T05:20:52;97666.97;;;12.81;100.00
13594;BME280;6449;47.666;9.160;2022-10-17T05:25:45;97670.84;;;12.88;100.00
13594;BME280;6449;47.666;9.160;2022-10-17T05:30:40;97650.53;;;12.90;100.00
13594;BME280;6449;47.666;9.160;2022-10-17T05:35:33;97641.69;;;12.91;100.00
13594;BME280;6449;47.666;9.160;2022-10-17T05:40:26;97657.34;;;12.93;100.00
13594;BME280;6449;47.666;9.160;2022-10-17T05:45:20;97648.72;;;12.91;100.00
13594;BME280;6449;47.666;9.160;2022-10-17T05:50:14;97663.50;;;12.80;100.00
13594;BME280;6449;47.666;9.160;2022-10-17T05:55:09;97680.28;;;12.67;100.00
13594;BME280;6449;47.666;9.160;2022-10-17T06:00:04;97692.84;;;12.50;100.00
13594;BME280;6449;47.666;9.160;2022-10-17T06:04:57;97692.41;;;12.56;100.00
13594;BME280;6449;47.666;9.160;2022-10-17T06:09:52;97706.38;;;12.70;100.00
13594;BME280;6449;47.666;9.160;2022-10-17T06:14:45;97721.00;;;12.74;100.00
13594;BME280;6449;47.666;9.160;2022-10-17T06:19:39;97717.28;;;12.76;100.00
13594;BME280;6449;47.666;9.160;2022-10-17T06:24:33;97720.16;;;12.73;100.00
13594;BME280;6449;47.666;9.160;2022-10-17T06:29:27;97729.81;;;12.73;100.00
13594;BME280;6449;47.666;9.160;2022-10-17T06:34:21;97740.78;;;12.67;100.00
13594;BME280;6449;47.666;9.160;2022-10-17T06:39:14;97745.53;;;12.62;100.00
13594;BME280;6449;47.666;9.160;2022-10-17T06:44:07;97756.56;;;12.67;100.00
13594;BME280;6449;47.666;9.160;2022-10-17T06:49:04;97750.16;;;12.71;100.00
13594;BME280;6449;47.666;9.160;2022-10-17T06:53:57;97763.38;;;12.82;100.00
13594;BME280;6449;47.666;9.160;2022-10-17T06:58:51;97762.09;;;12.88;100.00
13594;BME280;6449;47.666;9.160;2022-10-17T07:03:47;97780.53;;;12.88;100.00
13594;BME280;6449;47.666;9.160;2022-10-17T07:08:44;97787.25;;;12.92;100.00
13594;BME280;6449;47.666;9.160;2022-10-17T07:13:37;97797.38;;;12.85;100.00
13594;BME280;6449;47.666;9.160;2022-10-17T07:18:33;97804.00;;;12.91;100.00
13594;BME280;6449;47.666;9.160;2022-10-17T07:23:27;97808.63;;;13.00;100.00
13594;BME280;6449;47.666;9.160;2022-10-17T07:28:21;97819.03;;;13.01;100.00
13594;BME280;6449;47.666;9.160;2022-10-17T07:33:15;97815.41;;;13.15;100.00
13594;BME280;6449;47.666;9.160;2022-10-17T07:38:08;97815.13;;;13.07;100.00
13594;BME280;6449;47.666;9.160;2022-10-17T07:43:01;97828.25;;;13.20;100.00
13594;BME280;6449;47.666;9.160;2022-10-17T07:47:57;97827.41;;;13.19;100.00
13594;BME280;6449;47.666;9.160;2022-10-17T07:52:57;97829.88;;;13.22;100.00
13594;BME280;6449;47.666;9.160;2022-10-17T07:57:50;97829.75;;;13.24;100.00
13594;BME280;6449;47.666;9.160;2022-10-17T08:02:45;97844.16;;;13.18;100.00
13594;BME280;6449;47.666;9.160;2022-10-17T08:07:42;97838.28;;;13.27;100.00
13594;BME280;6449;47.666;9.160;2022-10-17T08:12:39;97838.56;;;13.35;100.00
13594;BME280;6449;47.666;9.160;2022-10-17T08:17:34;97832.19;;;13.51;100.00
13594;BME280;6449;47.666;9.160;2022-10-17T08:22:31;97834.44;;;13.68;100.00
13594;BME280;6449;47.666;9.160;2022-10-17T08:27:26;97839.69;;;13.68;100.00
13594;BME280;6449;47.666;9.160;2022-10-17T08:32:21;97847.78;;;13.78;100.00
13594;BME280;6449;47.666;9.160;2022-10-17T08:37:15;97838.84;;;13.92;100.00
13594;BME280;6449;47.666;9.160;2022-10-17T08:42:53;97838.28;;;13.99;100.00
13594;BME280;6449;47.666;9.160;2022-10-17T08:47:57;97852.94;;;14.14;100.00
13594;BME280;6449;47.666;9.160;2022-10-17T08:52:56;97852.13;;;14.14;100.00
13594;BME280;6449;47.666;9.160;2022-10-17T08:57:55;97852.78;;;14.05;100.00
13594;BME280;6449;47.666;9.160;2022-10-17T09:03:04;97861.16;;;13.99;100.00
13594;BME280;6449;47.666;9.160;2022-10-17T09:08:14;97855.47;;;13.81;100.00
13594;BME280;6449;47.666;9.160;2022-10-17T09:13:24;97853.16;;;13.76;100.00
13594;BME280;6449;47.666;9.160;2022-10-17T09:18:25;97853.34;;;13.86;100.00
13594;BME280;6449;47.666;9.160;2022-10-17T09:23:23;97868.84;;;13.78;100.00
13594;BME280;6449;47.666;9.160;2022-10-17T09:28:24;97860.19;;;14.00;100.00
13594;BME280;6449;47.666;9.160;2022-10-17T09:33:25;97859.53;;;14.09;100.00
13594;BME280;6449;47.666;9.160;2022-10-17T09:38:43;97865.47;;;14.00;100.00
13594;BME280;6449;47.666;9.160;2022-10-17T09:43:39;97868.59;;;14.29;100.00
13594;BME280;6449;47.666;9.160;2022-10-17T09:48:39;97870.59;;;14.25;100.00
13594;BME280;6449;47.666;9.160;2022-10-17T09:53:38;97875.16;;;14.23;100.00
13594;BME280;6449;47.666;9.160;2022-10-17T09:58:47;97871.47;;;14.37;100.00
13594;BME280;6449;47.666;9.160;2022-10-17T10:03:40;97880.13;;;14.39;100.00
13594;BME280;6449;47.666;9.160;2022-10-17T10:08:37;97876.53;;;14.40;100.00
13594;BME280;6449;47.666;9.160;2022-10-17T10:18:42;97889.66;;;14.53;100.00
13594;BME280;6449;47.666;9.160;2022-10-17T10:23:43;97888.84;;;14.63;100.00
13594;BME280;6449;47.666;9.160;2022-10-17T10:28:36;97888.63;;;14.78;100.00
13594;BME280;6449;47.666;9.160;2022-10-17T10:33:34;97891.97;;;14.68;100.00
13594;BME280;6449;47.666;9.160;2022-10-17T10:38:34;97888.16;;;14.73;100.00
13594;BME280;6449;47.666;9.160;2022-10-17T10:43:35;97888.78;;;14.87;100.00
13594;BME280;6449;47.666;9.160;2022-10-17T10:48:34;97894.66;;;15.02;100.00
13594;BME280;6449;47.666;9.160;2022-10-17T10:53:38;97887.09;;;15.09;100.00
13594;BME280;6449;47.666;9.160;2022-10-17T10:58:43;97897.66;;;15.09;100.00
13594;BME280;6449;47.666;9.160;2022-10-17T11:03:51;97881.81;;;15.09;100.00
13594;BME280;6449;47.666;9.160;2022-10-17T11:08:51;97892.03;;;15.13;100.00
13594;BME280;6449;47.666;9.160;2022-10-17T11:13:52;97889.03;;;15.29;100.00
13594;BME280;6449;47.666;9.160;2022-10-17T11:18:55;97894.88;;;15.33;100.00
13594;BME280;6449;47.666;9.160;2022-10-17T11:24:14;97889.38;;;15.36;100.00
13594;BME280;6449;47.666;9.160;2022-10-17T11:29:10;97875.91;;;15.50;100.00
13594;BME280;6449;47.666;9.160;2022-10-17T11:34:10;97882.97;;;15.72;100.00
13594;BME280;6449;47.666;9.160;2022-10-17T11:39:17;97893.75;;;15.80;100.00
13594;BME280;6449;47.666;9.160;2022-10-17T11:54:41;97878.19;;;16.30;100.00
13594;BME280;6449;47.666;9.160;2022-10-17T11:59:57;97889.09;;;16.37;100.00
13594;BME280;6449;47.666;9.160;2022-10-17T12:05:00;97886.56;;;16.56;100.00
13594;BME280;6449;47.666;9.160;2022-10-17T12:10:15;97884.56;;;16.69;100.00
13594;BME280;6449;47.666;9.160;2022-10-17T12:15:35;97889.56;;;16.84;100.00
13594;BME280;6449;47.666;9.160;2022-10-17T12:20:34;97885.13;;;16.84;100.00
13594;BME280;6449;47.666;9.160;2022-10-17T12:25:32;97890.88;;;16.89;100.00
13594;BME280;6449;47.666;9.160;2022-10-17T12:30:27;97871.94;;;16.94;100.00
13594;BME280;6449;47.666;9.160;2022-10-17T12:35:23;97873.31;;;16.98;100.00
13594;BME280;6449;47.666;9.160;2022-10-17T12:40:57;97868.75;;;17.00;100.00
13594;BME280;6449;47.666;9.160;2022-10-17T12:45:52;97871.00;;;17.05;100.00
13594;BME280;6449;47.666;9.160;2022-10-17T12:51:05;97854.53;;;17.01;100.00
13594;BME280;6449;47.666;9.160;2022-10-17T13:01:33;97863.59;;;17.08;100.00
13594;BME280;6449;47.666;9.160;2022-10-17T13:11:39;97856.25;;;17.12;100.00
13594;BME280;6449;47.666;9.160;2022-10-17T13:21:51;97851.09;;;17.10;100.00
13594;BME280;6449;47.666;9.160;2022-10-17T13:26:47;97849.91;;;17.03;100.00
13594;BME280;6449;47.666;9.160;2022-10-17T13:31:43;97852.13;;;16.98;100.00
13594;BME280;6449;47.666;9.160;2022-10-17T13:36:36;97855.50;;;17.10;100.00
13594;BME280;6449;47.666;9.160;2022-10-17T13:41:32;97856.13;;;17.23;100.00
13594;BME280;6449;47.666;9.160;2022-10-17T13:46:31;97863.41;;;17.31;100.00
13594;BME280;6449;47.666;9.160;2022-10-17T13:51:30;97867.03;;;17.29;100.00
13594;BME280;6449;47.666;9.160;2022-10-17T13:56:26;97864.09;;;17.23;100.00
13594;BME280;6449;47.666;9.160;2022-10-17T14:01:25;97854.88;;;17.17;100.00
13594;BME280;6449;47.666;9.160;2022-10-17T14:06:21;97850.00;;;17.22;100.00
13594;BME280;6449;47.666;9.160;2022-10-17T14:11:37;97859.09;;;17.29;100.00
13594;BME280;6449;47.666;9.160;2022-10-17T14:21:27;97850.25;;;17.19;100.00
13594;BME280;6449;47.666;9.160;2022-10-17T14:26:47;97848.19;;;17.23;100.00
13594;BME280;6449;47.666;9.160;2022-10-17T14:31:40;97848.59;;;17.18;100.00
13594;BME280;6449;47.666;9.160;2022-10-17T14:36:38;97851.09;;;17.10;100.00
13594;BME280;6449;47.666;9.160;2022-10-17T14:41:35;97853.28;;;17.05;100.00
13594;BME280;6449;47.666;9.160;2022-10-17T14:46:36;97853.72;;;17.10;100.00
13594;BME280;6449;47.666;9.160;2022-10-17T14:51:30;97856.09;;;17.13;100.00
13594;BME280;6449;47.666;9.160;2022-10-17T14:56:50;97853.19;;;17.16;100.00
13594;BME280;6449;47.666;9.160;2022-10-17T15:01:44;97853.06;;;17.18;100.00
13594;BME280;6449;47.666;9.160;2022-10-17T15:06:37;97844.56;;;17.24;100.00
13594;BME280;6449;47.666;9.160;2022-10-17T15:11:31;97848.75;;;17.26;100.00
13594;BME280;6449;47.666;9.160;2022-10-17T15:16:31;97850.88;;;17.33;100.00
13594;BME280;6449;47.666;9.160;2022-10-17T15:21:26;97848.75;;;17.26;100.00
13594;BME280;6449;47.666;9.160;2022-10-17T15:26:35;97854.56;;;17.20;100.00
13594;BME280;6449;47.666;9.160;2022-10-17T15:31:31;97850.94;;;17.12;100.00
13594;BME280;6449;47.666;9.160;2022-10-17T15:36:27;97859.13;;;17.09;100.00
13594;BME280;6449;47.666;9.160;2022-10-17T15:41:23;97853.53;;;17.02;100.00
13594;BME280;6449;47.666;9.160;2022-10-17T15:46:20;97859.53;;;16.94;100.00
13594;BME280;6449;47.666;9.160;2022-10-17T15:51:15;97862.56;;;16.90;100.00
13594;BME280;6449;47.666;9.160;2022-10-17T15:56:20;97874.91;;;16.80;100.00
13594;BME280;6449;47.666;9.160;2022-10-17T16:01:21;97872.78;;;16.73;100.00
13594;BME280;6449;47.666;9.160;2022-10-17T16:06:17;97872.84;;;16.62;100.00
13594;BME280;6449;47.666;9.160;2022-10-17T16:11:18;97874.81;;;16.49;100.00
13594;BME280;6449;47.666;9.160;2022-10-17T16:16:13;97868.38;;;16.42;100.00
13594;BME280;6449;47.666;9.160;2022-10-17T17:18:03;97917.56;;;15.02;100.00
13594;BME280;6449;47.666;9.160;2022-10-17T22:46:47;98039.03;;;12.66;100.00
